sensor_id;sensor_type;location;lat;lon;timestamp;P1;durP1;ratioP1;P2;durP2;ratioP2
7659;SDS011;3872;47.902;8.162;2022-08-19T00:01:25;18.83;;;9.33;;
7659;SDS011;3872;47.902;8.162;2022-08-19T00:03:55;16.13;;;10.67;;
7659;SDS011;3872;47.902;8.162;2022-08-19T00:06:21;14.33;;;8.87;;
7659;SDS011;3872;47.902;8.162;2022-08-19T00:08:49;14.20;;;9.30;;
7659;SDS011;3872;47.902;8.162;2022-08-19T00:11:16;13.40;;;9.10;;
7659;SDS011;3872;47.902;8.162;2022-08-19T00:13:44;15.20;;;9.40;;
7659;SDS011;3872;47.902;8.162;2022-08-19T00:16:11;15.73;;;9.07;;
7659;SDS011;3872;47.902;8.162;2022-08-19T00:18:37;15.47;;;9.93;;
7659;SDS011;3872;47.902;8.162;2022-08-19T00:21:04;14.90;;;9.07;;
7659;SDS011;3872;47.902;8.162;2022-08-19T00:23:32;16.43;;;10.83;;
7659;SDS011;3872;47.902;8.162;2022-08-19T00:26:01;17.40;;;10.43;;
7659;SDS011;3872;47.902;8.162;2022-08-19T00:28:28;16.93;;;9.83;;
7659;SDS011;3872;47.902;8.162;2022-08-19T00:30:55;17.53;;;9.63;;
7659;SDS011;3872;47.902;8.162;2022-08-19T00:33:23;17.77;;;10.80;;
7659;SDS011;3872;47.902;8.162;2022-08-19T00:35:49;17.83;;;10.73;;
7659;SDS011;3872;47.902;8.162;2022-08-19T00:38:16;22.27;;;11.70;;
7659;SDS011;3872;47.902;8.162;2022-08-19T00:40:43;18.30;;;11.90;;
7659;SDS011;3872;47.902;8.162;2022-08-19T00:43:14;20.03;;;11.83;;
7659;SDS011;3872;47.902;8.162;2022-08-19T00:45:44;21.37;;;11.70;;
7659;SDS011;3872;47.902;8.162;2022-08-19T00:48:12;17.93;;;11.57;;
7659;SDS011;3872;47.902;8.162;2022-08-19T00:50:39;17.57;;;11.13;;
7659;SDS011;3872;47.902;8.162;2022-08-19T00:53:08;18.20;;;11.30;;
7659;SDS011;3872;47.902;8.162;2022-08-19T00:55:35;21.53;;;12.07;;
7659;SDS011;3872;47.902;8.162;2022-08-19T00:58:06;19.57;;;11.70;;
7659;SDS011;3872;47.902;8.162;2022-08-19T01:00:39;20.13;;;12.33;;
7659;SDS011;3872;47.902;8.162;2022-08-19T01:03:07;20.47;;;11.40;;
7659;SDS011;3872;47.902;8.162;2022-08-19T01:05:35;19.17;;;11.27;;
7659;SDS011;3872;47.902;8.162;2022-08-19T01:08:05;16.63;;;10.73;;
7659;SDS011;3872;47.902;8.162;2022-08-19T01:10:33;16.90;;;10.90;;
7659;SDS011;3872;47.902;8.162;2022-08-19T01:13:04;21.80;;;12.37;;
7659;SDS011;3872;47.902;8.162;2022-08-19T01:15:31;19.50;;;12.73;;
7659;SDS011;3872;47.902;8.162;2022-08-19T01:18:04;20.50;;;12.27;;
7659;SDS011;3872;47.902;8.162;2022-08-19T01:20:34;19.77;;;11.80;;
7659;SDS011;3872;47.902;8.162;2022-08-19T01:23:02;20.70;;;12.50;;
7659;SDS011;3872;47.902;8.162;2022-08-19T01:25:31;20.13;;;12.23;;
7659;SDS011;3872;47.902;8.162;2022-08-19T01:28:01;23.50;;;14.30;;
7659;SDS011;3872;47.902;8.162;2022-08-19T01:30:30;27.10;;;14.60;;
7659;SDS011;3872;47.902;8.162;2022-08-19T01:32:58;26.10;;;14.23;;
7659;SDS011;3872;47.902;8.162;2022-08-19T01:35:26;29.10;;;16.40;;
7659;SDS011;3872;47.902;8.162;2022-08-19T01:37:56;26.60;;;16.77;;
7659;SDS011;3872;47.902;8.162;2022-08-19T01:40:26;27.23;;;16.33;;
7659;SDS011;3872;47.902;8.162;2022-08-19T01:42:56;28.63;;;16.07;;
7659;SDS011;3872;47.902;8.162;2022-08-19T01:45:24;30.77;;;17.03;;
7659;SDS011;3872;47.902;8.162;2022-08-19T01:47:52;33.10;;;17.50;;
7659;SDS011;3872;47.902;8.162;2022-08-19T01:50:19;37.77;;;19.87;;
7659;SDS011;3872;47.902;8.162;2022-08-19T01:52:46;35.50;;;19.97;;
7659;SDS011;3872;47.902;8.162;2022-08-19T01:55:14;36.53;;;19.70;;
7659;SDS011;3872;47.902;8.162;2022-08-19T01:57:46;39.40;;;21.33;;
7659;SDS011;3872;47.902;8.162;2022-08-19T02:00:17;40.40;;;20.53;;
7659;SDS011;3872;47.902;8.162;2022-08-19T02:02:45;39.97;;;20.60;;
7659;SDS011;3872;47.902;8.162;2022-08-19T02:05:12;43.13;;;21.73;;
7659;SDS011;3872;47.902;8.162;2022-08-19T02:07:39;41.73;;;22.43;;
7659;SDS011;3872;47.902;8.162;2022-08-19T02:10:08;39.67;;;21.33;;
7659;SDS011;3872;47.902;8.162;2022-08-19T02:12:36;42.17;;;23.27;;
7659;SDS011;3872;47.902;8.162;2022-08-19T02:15:05;40.50;;;21.83;;
7659;SDS011;3872;47.902;8.162;2022-08-19T02:17:32;43.40;;;23.20;;
7659;SDS011;3872;47.902;8.162;2022-08-19T02:19:59;52.17;;;23.40;;
7659;SDS011;3872;47.902;8.162;2022-08-19T02:22:26;45.10;;;22.63;;
7659;SDS011;3872;47.902;8.162;2022-08-19T02:24:53;39.20;;;20.90;;
7659;SDS011;3872;47.902;8.162;2022-08-19T02:27:20;46.93;;;23.47;;
7659;SDS011;3872;47.902;8.162;2022-08-19T02:29:47;45.67;;;22.27;;
7659;SDS011;3872;47.902;8.162;2022-08-19T02:32:17;45.40;;;23.00;;
7659;SDS011;3872;47.902;8.162;2022-08-19T02:34:44;39.67;;;22.10;;
7659;SDS011;3872;47.902;8.162;2022-08-19T02:37:11;41.50;;;22.10;;
7659;SDS011;3872;47.902;8.162;2022-08-19T02:39:52;42.60;;;22.33;;
7659;SDS011;3872;47.902;8.162;2022-08-19T02:42:19;38.60;;;21.77;;
7659;SDS011;3872;47.902;8.162;2022-08-19T02:44:45;41.33;;;20.80;;
7659;SDS011;3872;47.902;8.162;2022-08-19T02:47:12;43.80;;;20.73;;
7659;SDS011;3872;47.902;8.162;2022-08-19T02:49:40;43.03;;;22.40;;
7659;SDS011;3872;47.902;8.162;2022-08-19T02:52:07;43.90;;;22.23;;
7659;SDS011;3872;47.902;8.162;2022-08-19T02:54:34;44.77;;;23.63;;
7659;SDS011;3872;47.902;8.162;2022-08-19T02:57:01;39.77;;;21.73;;
7659;SDS011;3872;47.902;8.162;2022-08-19T02:59:29;49.73;;;22.27;;
7659;SDS011;3872;47.902;8.162;2022-08-19T03:01:56;47.50;;;23.20;;
7659;SDS011;3872;47.902;8.162;2022-08-19T03:04:22;47.53;;;23.10;;
7659;SDS011;3872;47.902;8.162;2022-08-19T03:06:50;45.10;;;21.80;;
7659;SDS011;3872;47.902;8.162;2022-08-19T03:09:18;45.83;;;23.93;;
7659;SDS011;3872;47.902;8.162;2022-08-19T03:11:45;49.90;;;23.07;;
7659;SDS011;3872;47.902;8.162;2022-08-19T03:14:12;44.40;;;20.80;;
7659;SDS011;3872;47.902;8.162;2022-08-19T03:16:40;43.80;;;22.13;;
7659;SDS011;3872;47.902;8.162;2022-08-19T03:19:10;46.57;;;23.57;;
7659;SDS011;3872;47.902;8.162;2022-08-19T03:21:37;46.20;;;23.10;;
7659;SDS011;3872;47.902;8.162;2022-08-19T03:24:06;47.30;;;24.27;;
7659;SDS011;3872;47.902;8.162;2022-08-19T03:26:34;40.70;;;22.57;;
7659;SDS011;3872;47.902;8.162;2022-08-19T03:29:04;48.13;;;21.97;;
7659;SDS011;3872;47.902;8.162;2022-08-19T03:31:31;37.00;;;20.40;;
7659;SDS011;3872;47.902;8.162;2022-08-19T03:33:58;35.37;;;20.67;;
7659;SDS011;3872;47.902;8.162;2022-08-19T03:36:25;44.37;;;21.50;;
7659;SDS011;3872;47.902;8.162;2022-08-19T03:38:54;38.87;;;21.50;;
7659;SDS011;3872;47.902;8.162;2022-08-19T03:41:27;38.90;;;20.80;;
7659;SDS011;3872;47.902;8.162;2022-08-19T03:43:56;33.70;;;20.50;;
7659;SDS011;3872;47.902;8.162;2022-08-19T03:46:24;36.00;;;20.00;;
7659;SDS011;3872;47.902;8.162;2022-08-19T03:48:53;36.00;;;19.67;;
7659;SDS011;3872;47.902;8.162;2022-08-19T03:51:23;32.63;;;18.63;;
7659;SDS011;3872;47.902;8.162;2022-08-19T03:53:51;36.03;;;20.47;;
7659;SDS011;3872;47.902;8.162;2022-08-19T03:56:19;35.03;;;19.40;;
7659;SDS011;3872;47.902;8.162;2022-08-19T03:58:47;34.60;;;18.40;;
7659;SDS011;3872;47.902;8.162;2022-08-19T04:01:14;39.30;;;17.87;;
7659;SDS011;3872;47.902;8.162;2022-08-19T04:03:43;36.13;;;19.60;;
7659;SDS011;3872;47.902;8.162;2022-08-19T04:06:12;34.77;;;19.43;;
7659;SDS011;3872;47.902;8.162;2022-08-19T04:08:40;42.60;;;20.67;;
7659;SDS011;3872;47.902;8.162;2022-08-19T04:11:08;35.27;;;18.90;;
7659;SDS011;3872;47.902;8.162;2022-08-19T04:13:36;38.87;;;19.90;;
7659;SDS011;3872;47.902;8.162;2022-08-19T04:16:04;36.73;;;19.20;;
7659;SDS011;3872;47.902;8.162;2022-08-19T04:18:32;37.13;;;18.37;;
7659;SDS011;3872;47.902;8.162;2022-08-19T04:20:59;34.30;;;18.50;;
7659;SDS011;3872;47.902;8.162;2022-08-19T04:23:26;31.87;;;19.07;;
7659;SDS011;3872;47.902;8.162;2022-08-19T04:25:53;38.53;;;20.03;;
7659;SDS011;3872;47.902;8.162;2022-08-19T04:28:20;36.23;;;18.80;;
7659;SDS011;3872;47.902;8.162;2022-08-19T04:30:49;36.00;;;19.10;;
7659;SDS011;3872;47.902;8.162;2022-08-19T04:33:20;34.10;;;18.40;;
7659;SDS011;3872;47.902;8.162;2022-08-19T04:35:48;35.23;;;19.10;;
7659;SDS011;3872;47.902;8.162;2022-08-19T04:38:17;36.10;;;19.30;;
7659;SDS011;3872;47.902;8.162;2022-08-19T04:40:48;32.53;;;19.10;;
7659;SDS011;3872;47.902;8.162;2022-08-19T04:43:35;32.43;;;18.07;;
7659;SDS011;3872;47.902;8.162;2022-08-19T04:46:04;39.43;;;20.97;;
7659;SDS011;3872;47.902;8.162;2022-08-19T04:48:32;41.10;;;19.43;;
7659;SDS011;3872;47.902;8.162;2022-08-19T04:50:59;39.07;;;20.50;;
7659;SDS011;3872;47.902;8.162;2022-08-19T04:53:26;35.40;;;19.33;;
7659;SDS011;3872;47.902;8.162;2022-08-19T04:55:53;37.87;;;19.50;;
7659;SDS011;3872;47.902;8.162;2022-08-19T04:58:21;34.67;;;18.40;;
7659;SDS011;3872;47.902;8.162;2022-08-19T05:00:48;38.10;;;20.83;;
7659;SDS011;3872;47.902;8.162;2022-08-19T05:03:14;37.30;;;19.40;;
7659;SDS011;3872;47.902;8.162;2022-08-19T05:05:44;35.07;;;18.20;;
7659;SDS011;3872;47.902;8.162;2022-08-19T05:08:14;35.73;;;17.87;;
7659;SDS011;3872;47.902;8.162;2022-08-19T05:10:45;36.03;;;18.47;;
7659;SDS011;3872;47.902;8.162;2022-08-19T05:13:13;36.70;;;18.63;;
7659;SDS011;3872;47.902;8.162;2022-08-19T05:15:41;32.60;;;17.80;;
7659;SDS011;3872;47.902;8.162;2022-08-19T05:18:11;37.37;;;20.07;;
7659;SDS011;3872;47.902;8.162;2022-08-19T05:20:57;28.57;;;17.33;;
7659;SDS011;3872;47.902;8.162;2022-08-19T05:23:41;32.37;;;18.50;;
7659;SDS011;3872;47.902;8.162;2022-08-19T05:26:09;29.83;;;16.00;;
7659;SDS011;3872;47.902;8.162;2022-08-19T05:28:36;36.40;;;19.43;;
7659;SDS011;3872;47.902;8.162;2022-08-19T05:31:02;31.33;;;16.80;;
7659;SDS011;3872;47.902;8.162;2022-08-19T05:33:29;30.33;;;17.43;;
7659;SDS011;3872;47.902;8.162;2022-08-19T05:35:57;29.03;;;16.30;;
7659;SDS011;3872;47.902;8.162;2022-08-19T05:38:24;26.93;;;15.07;;
7659;SDS011;3872;47.902;8.162;2022-08-19T05:40:51;30.80;;;16.40;;
7659;SDS011;3872;47.902;8.162;2022-08-19T05:43:17;31.90;;;17.93;;
7659;SDS011;3872;47.902;8.162;2022-08-19T05:45:44;28.03;;;15.30;;
7659;SDS011;3872;47.902;8.162;2022-08-19T05:48:11;30.17;;;14.90;;
7659;SDS011;3872;47.902;8.162;2022-08-19T05:50:38;29.83;;;16.00;;
7659;SDS011;3872;47.902;8.162;2022-08-19T05:53:07;25.30;;;14.97;;
7659;SDS011;3872;47.902;8.162;2022-08-19T05:55:35;31.27;;;17.37;;
7659;SDS011;3872;47.902;8.162;2022-08-19T05:58:03;32.87;;;16.83;;
7659;SDS011;3872;47.902;8.162;2022-08-19T06:00:32;28.07;;;17.17;;
7659;SDS011;3872;47.902;8.162;2022-08-19T06:02:59;28.90;;;16.43;;
7659;SDS011;3872;47.902;8.162;2022-08-19T06:05:28;26.30;;;16.30;;
7659;SDS011;3872;47.902;8.162;2022-08-19T06:07:55;25.00;;;14.30;;
7659;SDS011;3872;47.902;8.162;2022-08-19T06:10:23;30.07;;;16.50;;
7659;SDS011;3872;47.902;8.162;2022-08-19T06:12:49;25.97;;;15.60;;
7659;SDS011;3872;47.902;8.162;2022-08-19T06:15:16;26.73;;;14.90;;
7659;SDS011;3872;47.902;8.162;2022-08-19T06:17:43;26.77;;;14.93;;
7659;SDS011;3872;47.902;8.162;2022-08-19T06:20:11;26.23;;;16.13;;
7659;SDS011;3872;47.902;8.162;2022-08-19T06:22:40;29.57;;;15.87;;
7659;SDS011;3872;47.902;8.162;2022-08-19T06:25:08;28.67;;;14.53;;
7659;SDS011;3872;47.902;8.162;2022-08-19T06:27:36;30.23;;;15.90;;
7659;SDS011;3872;47.902;8.162;2022-08-19T06:30:04;26.63;;;15.63;;
7659;SDS011;3872;47.902;8.162;2022-08-19T06:32:31;30.47;;;15.53;;
7659;SDS011;3872;47.902;8.162;2022-08-19T06:34:58;33.53;;;17.37;;
7659;SDS011;3872;47.902;8.162;2022-08-19T06:37:24;37.03;;;17.70;;
7659;SDS011;3872;47.902;8.162;2022-08-19T06:39:51;31.17;;;17.17;;
7659;SDS011;3872;47.902;8.162;2022-08-19T06:42:17;34.13;;;16.50;;
7659;SDS011;3872;47.902;8.162;2022-08-19T06:44:46;31.40;;;16.83;;
7659;SDS011;3872;47.902;8.162;2022-08-19T06:47:15;31.30;;;19.10;;
7659;SDS011;3872;47.902;8.162;2022-08-19T06:49:43;33.97;;;18.17;;
7659;SDS011;3872;47.902;8.162;2022-08-19T06:52:11;36.30;;;18.40;;
7659;SDS011;3872;47.902;8.162;2022-08-19T06:54:37;38.47;;;19.03;;
7659;SDS011;3872;47.902;8.162;2022-08-19T06:57:05;34.10;;;17.40;;
7659;SDS011;3872;47.902;8.162;2022-08-19T06:59:34;38.10;;;19.03;;
7659;SDS011;3872;47.902;8.162;2022-08-19T07:02:04;31.80;;;17.87;;
7659;SDS011;3872;47.902;8.162;2022-08-19T07:04:32;36.67;;;17.80;;
7659;SDS011;3872;47.902;8.162;2022-08-19T07:07:00;37.00;;;17.80;;
7659;SDS011;3872;47.902;8.162;2022-08-19T07:09:31;31.07;;;18.37;;
7659;SDS011;3872;47.902;8.162;2022-08-19T07:11:57;37.40;;;18.77;;
7659;SDS011;3872;47.902;8.162;2022-08-19T07:14:25;34.37;;;18.57;;
7659;SDS011;3872;47.902;8.162;2022-08-19T07:16:54;31.60;;;17.23;;
7659;SDS011;3872;47.902;8.162;2022-08-19T07:19:25;36.77;;;17.90;;
7659;SDS011;3872;47.902;8.162;2022-08-19T07:21:52;42.07;;;18.67;;
7659;SDS011;3872;47.902;8.162;2022-08-19T07:24:20;30.50;;;16.07;;
7659;SDS011;3872;47.902;8.162;2022-08-19T07:26:49;35.00;;;17.80;;
7659;SDS011;3872;47.902;8.162;2022-08-19T07:29:18;35.60;;;18.93;;
7659;SDS011;3872;47.902;8.162;2022-08-19T07:31:48;32.67;;;18.57;;
7659;SDS011;3872;47.902;8.162;2022-08-19T07:34:15;33.20;;;18.60;;
7659;SDS011;3872;47.902;8.162;2022-08-19T07:36:43;29.70;;;17.60;;
7659;SDS011;3872;47.902;8.162;2022-08-19T07:39:11;45.13;;;20.63;;
7659;SDS011;3872;47.902;8.162;2022-08-19T07:41:39;41.57;;;20.50;;
7659;SDS011;3872;47.902;8.162;2022-08-19T07:44:07;41.67;;;21.17;;
7659;SDS011;3872;47.902;8.162;2022-08-19T07:46:36;39.60;;;21.27;;
7659;SDS011;3872;47.902;8.162;2022-08-19T07:49:05;42.43;;;22.87;;
7659;SDS011;3872;47.902;8.162;2022-08-19T07:51:33;45.40;;;23.10;;
7659;SDS011;3872;47.902;8.162;2022-08-19T07:54:01;52.13;;;24.90;;
7659;SDS011;3872;47.902;8.162;2022-08-19T07:56:28;45.20;;;24.00;;
7659;SDS011;3872;47.902;8.162;2022-08-19T07:58:54;44.80;;;22.87;;
7659;SDS011;3872;47.902;8.162;2022-08-19T08:01:21;52.50;;;25.67;;
7659;SDS011;3872;47.902;8.162;2022-08-19T08:03:50;48.03;;;23.40;;
7659;SDS011;3872;47.902;8.162;2022-08-19T08:06:35;39.57;;;20.67;;
7659;SDS011;3872;47.902;8.162;2022-08-19T08:09:23;45.67;;;24.27;;
7659;SDS011;3872;47.902;8.162;2022-08-19T08:11:52;42.07;;;21.83;;
7659;SDS011;3872;47.902;8.162;2022-08-19T08:14:23;39.23;;;20.43;;
7659;SDS011;3872;47.902;8.162;2022-08-19T08:16:52;38.93;;;22.30;;
7659;SDS011;3872;47.902;8.162;2022-08-19T08:19:19;40.63;;;20.40;;
7659;SDS011;3872;47.902;8.162;2022-08-19T08:21:47;41.63;;;21.57;;
7659;SDS011;3872;47.902;8.162;2022-08-19T08:24:14;42.97;;;21.83;;
7659;SDS011;3872;47.902;8.162;2022-08-19T08:26:43;43.77;;;22.80;;
7659;SDS011;3872;47.902;8.162;2022-08-19T08:29:10;42.87;;;21.90;;
7659;SDS011;3872;47.902;8.162;2022-08-19T08:31:37;39.37;;;20.53;;
7659;SDS011;3872;47.902;8.162;2022-08-19T08:34:04;41.87;;;21.60;;
7659;SDS011;3872;47.902;8.162;2022-08-19T08:36:31;40.90;;;22.60;;
7659;SDS011;3872;47.902;8.162;2022-08-19T08:38:58;44.27;;;23.83;;
7659;SDS011;3872;47.902;8.162;2022-08-19T08:41:27;36.77;;;21.47;;
7659;SDS011;3872;47.902;8.162;2022-08-19T08:44:03;46.47;;;21.10;;
7659;SDS011;3872;47.902;8.162;2022-08-19T08:46:31;40.43;;;22.50;;
7659;SDS011;3872;47.902;8.162;2022-08-19T08:49:04;43.57;;;21.53;;
7659;SDS011;3872;47.902;8.162;2022-08-19T08:51:40;39.77;;;21.73;;
7659;SDS011;3872;47.902;8.162;2022-08-19T08:54:11;40.87;;;23.00;;
7659;SDS011;3872;47.902;8.162;2022-08-19T08:56:40;40.90;;;20.60;;
7659;SDS011;3872;47.902;8.162;2022-08-19T08:59:12;42.50;;;22.03;;
7659;SDS011;3872;47.902;8.162;2022-08-19T09:01:45;40.43;;;21.00;;
7659;SDS011;3872;47.902;8.162;2022-08-19T09:04:11;45.20;;;21.70;;
7659;SDS011;3872;47.902;8.162;2022-08-19T09:06:40;38.23;;;22.30;;
7659;SDS011;3872;47.902;8.162;2022-08-19T09:09:18;37.37;;;19.67;;
7659;SDS011;3872;47.902;8.162;2022-08-19T09:11:50;41.30;;;21.83;;
7659;SDS011;3872;47.902;8.162;2022-08-19T09:14:32;42.33;;;21.70;;
7659;SDS011;3872;47.902;8.162;2022-08-19T09:17:06;31.20;;;19.00;;
7659;SDS011;3872;47.902;8.162;2022-08-19T09:19:34;36.47;;;20.30;;
7659;SDS011;3872;47.902;8.162;2022-08-19T09:22:01;32.83;;;20.20;;
7659;SDS011;3872;47.902;8.162;2022-08-19T09:24:28;34.43;;;20.03;;
7659;SDS011;3872;47.902;8.162;2022-08-19T09:26:54;42.83;;;19.93;;
7659;SDS011;3872;47.902;8.162;2022-08-19T09:29:21;35.73;;;19.50;;
7659;SDS011;3872;47.902;8.162;2022-08-19T09:31:49;33.03;;;20.50;;
7659;SDS011;3872;47.902;8.162;2022-08-19T09:34:15;37.20;;;19.40;;
7659;SDS011;3872;47.902;8.162;2022-08-19T09:36:44;38.10;;;20.60;;
7659;SDS011;3872;47.902;8.162;2022-08-19T09:39:11;36.50;;;20.70;;
7659;SDS011;3872;47.902;8.162;2022-08-19T09:41:38;36.33;;;20.00;;
7659;SDS011;3872;47.902;8.162;2022-08-19T09:44:04;34.83;;;19.30;;
7659;SDS011;3872;47.902;8.162;2022-08-19T09:46:31;38.20;;;19.57;;
7659;SDS011;3872;47.902;8.162;2022-08-19T09:48:59;35.30;;;21.03;;
7659;SDS011;3872;47.902;8.162;2022-08-19T09:51:27;37.93;;;20.73;;
7659;SDS011;3872;47.902;8.162;2022-08-19T09:53:54;33.53;;;20.07;;
7659;SDS011;3872;47.902;8.162;2022-08-19T09:56:26;33.90;;;20.30;;
7659;SDS011;3872;47.902;8.162;2022-08-19T09:58:53;31.90;;;19.50;;
7659;SDS011;3872;47.902;8.162;2022-08-19T10:01:20;37.07;;;19.80;;
7659;SDS011;3872;47.902;8.162;2022-08-19T10:03:49;39.83;;;20.97;;
7659;SDS011;3872;47.902;8.162;2022-08-19T10:06:19;37.40;;;21.00;;
7659;SDS011;3872;47.902;8.162;2022-08-19T10:08:46;41.37;;;20.93;;
7659;SDS011;3872;47.902;8.162;2022-08-19T10:11:13;38.80;;;20.17;;
7659;SDS011;3872;47.902;8.162;2022-08-19T10:13:42;34.13;;;21.20;;
7659;SDS011;3872;47.902;8.162;2022-08-19T10:16:10;40.00;;;21.40;;
7659;SDS011;3872;47.902;8.162;2022-08-19T10:18:38;41.90;;;22.77;;
7659;SDS011;3872;47.902;8.162;2022-08-19T10:21:08;35.03;;;20.60;;
7659;SDS011;3872;47.902;8.162;2022-08-19T10:23:40;36.43;;;21.50;;
7659;SDS011;3872;47.902;8.162;2022-08-19T10:26:13;35.77;;;22.60;;
7659;SDS011;3872;47.902;8.162;2022-08-19T10:28:41;38.30;;;21.40;;
7659;SDS011;3872;47.902;8.162;2022-08-19T10:31:09;38.43;;;22.90;;
7659;SDS011;3872;47.902;8.162;2022-08-19T10:33:37;35.27;;;20.47;;
7659;SDS011;3872;47.902;8.162;2022-08-19T10:36:06;41.90;;;24.77;;
7659;SDS011;3872;47.902;8.162;2022-08-19T10:38:35;36.33;;;23.20;;
7659;SDS011;3872;47.902;8.162;2022-08-19T10:41:07;39.43;;;22.23;;
7659;SDS011;3872;47.902;8.162;2022-08-19T10:43:35;38.10;;;22.10;;
7659;SDS011;3872;47.902;8.162;2022-08-19T10:46:03;44.43;;;25.57;;
7659;SDS011;3872;47.902;8.162;2022-08-19T10:48:30;41.57;;;23.30;;
7659;SDS011;3872;47.902;8.162;2022-08-19T10:50:57;45.73;;;26.13;;
7659;SDS011;3872;47.902;8.162;2022-08-19T10:53:42;41.10;;;23.63;;
7659;SDS011;3872;47.902;8.162;2022-08-19T10:56:10;39.00;;;22.60;;
7659;SDS011;3872;47.902;8.162;2022-08-19T10:58:54;42.00;;;24.73;;
7659;SDS011;3872;47.902;8.162;2022-08-19T11:01:23;41.67;;;24.70;;
7659;SDS011;3872;47.902;8.162;2022-08-19T11:03:49;47.00;;;24.97;;
7659;SDS011;3872;47.902;8.162;2022-08-19T11:06:16;42.80;;;25.70;;
7659;SDS011;3872;47.902;8.162;2022-08-19T11:08:42;42.30;;;25.03;;
7659;SDS011;3872;47.902;8.162;2022-08-19T11:11:11;42.23;;;25.60;;
7659;SDS011;3872;47.902;8.162;2022-08-19T11:13:39;42.30;;;26.23;;
7659;SDS011;3872;47.902;8.162;2022-08-19T11:16:10;44.80;;;25.43;;
7659;SDS011;3872;47.902;8.162;2022-08-19T11:18:40;47.63;;;28.03;;
7659;SDS011;3872;47.902;8.162;2022-08-19T11:21:09;42.80;;;24.37;;
7659;SDS011;3872;47.902;8.162;2022-08-19T11:23:38;44.33;;;26.07;;
7659;SDS011;3872;47.902;8.162;2022-08-19T11:26:04;48.70;;;27.40;;
7659;SDS011;3872;47.902;8.162;2022-08-19T11:28:33;43.10;;;25.73;;
7659;SDS011;3872;47.902;8.162;2022-08-19T11:30:59;42.40;;;27.33;;
7659;SDS011;3872;47.902;8.162;2022-08-19T11:33:28;41.77;;;24.87;;
7659;SDS011;3872;47.902;8.162;2022-08-19T11:35:56;45.37;;;25.97;;
7659;SDS011;3872;47.902;8.162;2022-08-19T11:38:23;43.97;;;26.97;;
7659;SDS011;3872;47.902;8.162;2022-08-19T11:40:55;43.00;;;25.60;;
7659;SDS011;3872;47.902;8.162;2022-08-19T11:43:22;42.63;;;26.03;;
7659;SDS011;3872;47.902;8.162;2022-08-19T11:45:50;39.00;;;23.53;;
7659;SDS011;3872;47.902;8.162;2022-08-19T11:48:17;39.77;;;24.50;;
7659;SDS011;3872;47.902;8.162;2022-08-19T11:50:47;40.53;;;24.10;;
7659;SDS011;3872;47.902;8.162;2022-08-19T11:53:14;41.33;;;23.53;;
7659;SDS011;3872;47.902;8.162;2022-08-19T11:55:41;39.70;;;23.23;;
7659;SDS011;3872;47.902;8.162;2022-08-19T11:58:07;45.73;;;25.77;;
7659;SDS011;3872;47.902;8.162;2022-08-19T12:00:34;42.90;;;25.20;;
7659;SDS011;3872;47.902;8.162;2022-08-19T12:03:02;40.93;;;24.70;;
7659;SDS011;3872;47.902;8.162;2022-08-19T12:05:29;39.17;;;23.77;;
7659;SDS011;3872;47.902;8.162;2022-08-19T12:07:56;38.93;;;24.13;;
7659;SDS011;3872;47.902;8.162;2022-08-19T12:10:23;39.53;;;23.70;;
7659;SDS011;3872;47.902;8.162;2022-08-19T12:12:50;43.07;;;24.70;;
7659;SDS011;3872;47.902;8.162;2022-08-19T12:15:17;48.53;;;23.60;;
7659;SDS011;3872;47.902;8.162;2022-08-19T12:17:43;41.30;;;25.33;;
7659;SDS011;3872;47.902;8.162;2022-08-19T12:20:12;45.73;;;25.60;;
7659;SDS011;3872;47.902;8.162;2022-08-19T12:22:40;43.00;;;27.13;;
7659;SDS011;3872;47.902;8.162;2022-08-19T12:25:07;45.03;;;27.40;;
7659;SDS011;3872;47.902;8.162;2022-08-19T12:27:35;48.13;;;28.50;;
7659;SDS011;3872;47.902;8.162;2022-08-19T12:30:02;46.83;;;25.97;;
7659;SDS011;3872;47.902;8.162;2022-08-19T12:32:29;48.67;;;28.00;;
7659;SDS011;3872;47.902;8.162;2022-08-19T12:34:55;49.70;;;28.30;;
7659;SDS011;3872;47.902;8.162;2022-08-19T12:37:24;47.37;;;27.70;;
7659;SDS011;3872;47.902;8.162;2022-08-19T12:39:50;44.70;;;27.30;;
7659;SDS011;3872;47.902;8.162;2022-08-19T12:42:17;45.87;;;27.47;;
7659;SDS011;3872;47.902;8.162;2022-08-19T12:44:43;44.93;;;27.60;;
7659;SDS011;3872;47.902;8.162;2022-08-19T12:47:11;48.23;;;28.30;;
7659;SDS011;3872;47.902;8.162;2022-08-19T12:49:39;44.80;;;24.77;;
7659;SDS011;3872;47.902;8.162;2022-08-19T12:52:06;45.90;;;26.40;;
7659;SDS011;3872;47.902;8.162;2022-08-19T12:54:35;38.90;;;23.50;;
7659;SDS011;3872;47.902;8.162;2022-08-19T12:57:04;37.47;;;23.50;;
7659;SDS011;3872;47.902;8.162;2022-08-19T12:59:32;36.40;;;20.93;;
7659;SDS011;3872;47.902;8.162;2022-08-19T13:01:59;31.40;;;20.43;;
7659;SDS011;3872;47.902;8.162;2022-08-19T13:04:26;29.17;;;18.70;;
7659;SDS011;3872;47.902;8.162;2022-08-19T13:06:53;31.60;;;20.43;;
7659;SDS011;3872;47.902;8.162;2022-08-19T13:09:19;30.20;;;20.37;;
7659;SDS011;3872;47.902;8.162;2022-08-19T13:11:47;32.77;;;21.20;;
7659;SDS011;3872;47.902;8.162;2022-08-19T13:14:13;30.63;;;18.93;;
7659;SDS011;3872;47.902;8.162;2022-08-19T13:16:40;31.07;;;19.83;;
7659;SDS011;3872;47.902;8.162;2022-08-19T13:19:08;32.20;;;21.33;;
7659;SDS011;3872;47.902;8.162;2022-08-19T13:21:35;28.07;;;18.20;;
7659;SDS011;3872;47.902;8.162;2022-08-19T13:24:02;33.53;;;20.97;;
7659;SDS011;3872;47.902;8.162;2022-08-19T13:26:29;29.10;;;19.40;;
7659;SDS011;3872;47.902;8.162;2022-08-19T13:28:57;30.50;;;20.30;;
7659;SDS011;3872;47.902;8.162;2022-08-19T13:31:42;30.10;;;20.80;;
7659;SDS011;3872;47.902;8.162;2022-08-19T13:34:28;27.30;;;18.50;;
7659;SDS011;3872;47.902;8.162;2022-08-19T13:36:57;27.17;;;18.60;;
7659;SDS011;3872;47.902;8.162;2022-08-19T13:39:25;30.20;;;19.47;;
7659;SDS011;3872;47.902;8.162;2022-08-19T13:41:53;28.30;;;19.20;;
7659;SDS011;3872;47.902;8.162;2022-08-19T13:44:21;30.03;;;20.40;;
7659;SDS011;3872;47.902;8.162;2022-08-19T13:46:47;34.43;;;21.00;;
7659;SDS011;3872;47.902;8.162;2022-08-19T13:49:16;26.20;;;18.77;;
7659;SDS011;3872;47.902;8.162;2022-08-19T13:51:43;26.70;;;18.80;;
7659;SDS011;3872;47.902;8.162;2022-08-19T13:54:10;24.83;;;17.13;;
7659;SDS011;3872;47.902;8.162;2022-08-19T13:56:40;27.73;;;18.90;;
7659;SDS011;3872;47.902;8.162;2022-08-19T13:59:07;28.20;;;18.57;;
7659;SDS011;3872;47.902;8.162;2022-08-19T14:01:35;30.87;;;19.97;;
7659;SDS011;3872;47.902;8.162;2022-08-19T14:04:02;27.67;;;19.77;;
7659;SDS011;3872;47.902;8.162;2022-08-19T14:06:31;28.30;;;17.53;;
7659;SDS011;3872;47.902;8.162;2022-08-19T14:08:58;25.17;;;17.40;;
7659;SDS011;3872;47.902;8.162;2022-08-19T14:11:24;23.77;;;15.87;;
7659;SDS011;3872;47.902;8.162;2022-08-19T14:13:52;23.03;;;15.30;;
7659;SDS011;3872;47.902;8.162;2022-08-19T14:16:18;31.67;;;17.23;;
7659;SDS011;3872;47.902;8.162;2022-08-19T14:18:48;31.53;;;16.53;;
7659;SDS011;3872;47.902;8.162;2022-08-19T14:21:16;24.83;;;16.97;;
7659;SDS011;3872;47.902;8.162;2022-08-19T14:23:45;22.87;;;15.77;;
7659;SDS011;3872;47.902;8.162;2022-08-19T14:26:13;27.90;;;17.80;;
7659;SDS011;3872;47.902;8.162;2022-08-19T14:28:42;22.53;;;15.73;;
7659;SDS011;3872;47.902;8.162;2022-08-19T14:31:09;24.70;;;16.20;;
7659;SDS011;3872;47.902;8.162;2022-08-19T14:33:36;25.03;;;16.57;;
7659;SDS011;3872;47.902;8.162;2022-08-19T14:36:05;22.00;;;15.70;;
7659;SDS011;3872;47.902;8.162;2022-08-19T14:38:32;23.73;;;14.87;;
7659;SDS011;3872;47.902;8.162;2022-08-19T14:41:06;22.07;;;14.57;;
7659;SDS011;3872;47.902;8.162;2022-08-19T14:43:34;22.17;;;15.50;;
7659;SDS011;3872;47.902;8.162;2022-08-19T14:46:00;22.50;;;14.53;;
7659;SDS011;3872;47.902;8.162;2022-08-19T14:48:27;20.07;;;14.20;;
7659;SDS011;3872;47.902;8.162;2022-08-19T14:50:54;21.23;;;14.97;;
7659;SDS011;3872;47.902;8.162;2022-08-19T14:53:22;22.43;;;15.53;;
7659;SDS011;3872;47.902;8.162;2022-08-19T14:55:49;21.37;;;14.90;;